Time;durP1;ratioP1;P1;durP2;ratioP2;P2;SDS_P1;SDS_P2;PMS_P1;PMS_P2;Temp;Humidity;BMP_temperature;BMP_pressure;BME280_temperature;BME280_humidity;BME280_pressure;Samples;Min_cycle;Max_cycle;Signal;HPM_P1;HPM_P2
2023/03/18 00:01:24;;;;;;;4.60;4.00;;;;;;;12.22;50.41;96260.00;5094034;28;20169;-62
2023/03/18 00:03:50;;;;;;;4.37;3.97;;;;;;;12.23;50.66;96269.47;5094642;28;20187;-62
2023/03/18 00:06:17;;;;;;;4.63;4.23;;;;;;;12.19;50.55;96271.81;5094603;28;20171;-62
2023/03/18 00:08:46;;;;;;;5.70;5.30;;;;;;;12.20;51.15;96267.34;5094502;28;20200;-62
2023/03/18 00:11:13;;;;;;;5.53;5.07;;;;;;;12.20;51.15;96275.22;5094869;28;20173;-62
2023/03/18 00:13:40;;;;;;;6.53;6.03;;;;;;;12.17;51.22;96266.00;5094724;28;20218;-61
2023/03/18 00:16:07;;;;;;;6.37;5.97;;;;;;;12.15;51.30;96262.81;5093982;28;20192;-61
2023/03/18 00:18:33;;;;;;;6.40;6.00;;;;;;;12.04;51.79;96263.75;5094648;28;20551;-62
2023/03/18 00:20:59;;;;;;;6.40;6.00;;;;;;;11.94;52.13;96261.03;5094862;28;20181;-62
2023/03/18 00:23:26;;;;;;;5.20;4.80;;;;;;;12.03;52.35;96265.63;5094547;28;20173;-62
2023/03/18 00:25:55;;;;;;;6.20;5.10;;;;;;;11.97;52.62;96256.09;5092274;28;20674;-60
2023/03/18 00:28:23;;;;;;;5.83;5.53;;;;;;;11.93;52.94;96260.25;5094268;28;20211;-60
2023/03/18 00:30:49;;;;;;;6.20;5.73;;;;;;;11.94;52.95;96263.66;5094655;28;20165;-61
2023/03/18 00:33:15;;;;;;;6.93;6.43;;;;;;;11.92;52.80;96271.81;5094268;28;20694;-62
2023/03/18 00:35:41;;;;;;;6.27;5.70;;;;;;;11.85;53.40;96273.84;5094183;28;20204;-61
2023/03/18 00:38:08;;;;;;;5.03;4.73;;;;;;;11.80;53.83;96279.03;5093765;28;20184;-61
2023/03/18 00:40:52;;;;;;;5.10;3.97;;;;;;;11.79;54.01;96279.28;5092633;28;20160;-62
2023/03/18 00:43:22;;;;;;;4.13;3.73;;;;;;;11.76;54.36;96285.03;5093375;28;20528;-62
2023/03/18 00:45:49;;;;;;;4.43;4.03;;;;;;;11.72;54.49;96279.44;5093944;28;20324;-62
2023/03/18 00:48:16;;;;;;;6.60;6.00;;;;;;;11.62;54.54;96281.94;5093720;28;20199;-62
2023/03/18 00:50:43;;;;;;;7.10;6.70;;;;;;;11.60;54.81;96284.81;5093903;28;20185;-62
2023/03/18 00:53:09;;;;;;;8.53;7.80;;;;;;;11.60;54.63;96282.19;5093763;28;20644;-62
2023/03/18 00:55:34;;;;;;;10.47;9.67;;;;;;;11.62;54.36;96281.94;5091519;28;20232;-60
2023/03/18 00:58:00;;;;;;;10.73;10.13;;;;;;;11.62;54.30;96282.75;5093509;28;20184;-62
2023/03/18 01:00:26;;;;;;;9.50;8.97;;;;;;;11.53;54.78;96286.84;5093714;28;20177;-62
2023/03/18 01:02:52;;;;;;;10.17;9.37;;;;;;;11.57;54.27;96293.19;5093786;28;20640;-62
2023/03/18 01:05:17;;;;;;;8.57;8.07;;;;;;;11.49;54.59;96290.97;5093944;28;20173;-61
2023/03/18 01:07:44;;;;;;;7.97;7.47;;;;;;;11.53;54.51;96283.44;5093230;28;20672;-61
2023/03/18 01:10:14;;;;;;;10.20;9.53;;;;;;;11.50;54.15;96281.28;5093546;28;20584;-62
2023/03/18 01:12:41;;;;;;;10.23;9.23;;;;;;;11.46;54.31;96278.34;5093569;28;20226;-61
2023/03/18 01:15:11;;;;;;;10.00;9.40;;;;;;;11.46;54.07;96290.69;5075291;28;20295;-62
2023/03/18 01:17:37;;;;;;;9.00;8.47;;;;;;;11.50;54.16;96295.19;5075420;28;20173;-61
2023/03/18 01:20:04;;;;;;;6.40;5.90;;;;;;;11.46;54.44;96288.84;5093201;28;20208;-62
2023/03/18 01:22:29;;;;;;;7.47;7.00;;;;;;;11.49;54.49;96292.81;5075342;28;20168;-61
2023/03/18 01:24:56;;;;;;;7.27;6.67;;;;;;;11.42;54.34;96290.38;5090849;28;20203;-61
2023/03/18 01:27:21;;;;;;;7.57;6.87;;;;;;;11.43;54.14;96285.91;5093450;28;20160;-61
2023/03/18 01:29:47;;;;;;;5.63;5.23;;;;;;;11.44;54.11;96282.25;5092509;28;20211;-62
2023/03/18 01:32:13;;;;;;;5.97;5.47;;;;;;;11.38;54.16;96278.75;5092460;28;20179;-62
2023/03/18 01:34:40;;;;;;;5.30;4.40;;;;;;;11.44;54.21;96277.78;5074568;28;20169;-61
2023/03/18 01:37:06;;;;;;;4.60;4.17;;;;;;;11.38;54.35;96272.72;5092876;28;20203;-62
2023/03/18 01:39:33;;;;;;;4.03;3.73;;;;;;;11.41;54.28;96282.75;5092785;28;20598;-61
2023/03/18 01:41:58;;;;;;;5.87;4.00;;;;;;;11.39;53.69;96282.19;5092734;28;20263;-61
2023/03/18 01:44:24;;;;;;;8.70;4.30;;;;;;;11.46;53.89;96274.94;5073631;28;20268;-61
2023/03/18 01:46:51;;;;;;;4.57;3.70;;;;;;;11.49;53.72;96269.19;5092692;28;20201;-60
2023/03/18 01:49:47;;;;;;;4.20;3.90;;;;;;;11.50;54.10;96260.28;5092661;28;20192;-61
2023/03/18 01:52:25;;;;;;;5.70;4.43;;;;;;;11.52;53.99;96268.72;5090750;28;20193;-60
2023/03/18 01:55:05;;;;;;;5.07;4.77;;;;;;;11.43;53.75;96263.06;5085766;28;20230;-59
2023/03/18 01:57:32;;;;;;;11.80;11.20;;;;;;;11.49;53.18;96266.56;5112767;28;20176;-61
2023/03/18 01:59:59;;;;;;;13.63;12.43;;;;;;;11.50;52.84;96276.81;5112570;28;20567;-61
2023/03/18 02:02:25;;;;;;;13.40;12.60;;;;;;;11.50;53.23;96281.28;5112969;28;20251;-61
2023/03/18 02:04:53;;;;;;;12.53;11.53;;;;;;;11.53;53.14;96273.72;5112577;28;20164;-61
2023/03/18 02:07:26;;;;;;;10.20;9.50;;;;;;;11.55;52.69;96273.44;5112750;28;20176;-62
2023/03/18 02:09:54;;;;;;;12.47;11.67;;;;;;;11.61;52.80;96273.28;5094576;28;20684;-62
2023/03/18 02:12:25;;;;;;;8.77;8.27;;;;;;;11.63;52.71;96273.84;5112954;28;20168;-62
2023/03/18 02:14:52;;;;;;;9.03;8.50;;;;;;;11.56;52.79;96267.16;5112213;28;20184;-62
2023/03/18 02:17:21;;;;;;;8.50;8.00;;;;;;;11.59;52.71;96272.72;5112264;28;20178;-62
2023/03/18 02:20:09;;;;;;;9.33;8.80;;;;;;;11.48;53.46;96276.25;5112736;28;20660;-62
2023/03/18 02:22:51;;;;;;;12.30;11.60;;;;;;;11.44;53.77;96269.91;5112424;28;20225;-61
2023/03/18 02:25:42;;;;;;;13.73;12.80;;;;;;;11.45;53.78;96262.84;5112103;28;20187;-61
2023/03/18 02:28:12;;;;;;;7.00;6.60;;;;;;;11.36;54.26;96261.69;5117246;28;20264;-62
2023/03/18 02:30:45;;;;;;;4.47;4.07;;;;;;;11.23;54.23;96261.00;5117244;28;20191;-61
2023/03/18 02:33:14;;;;;;;3.93;3.57;;;;;;;11.15;55.01;96268.50;5116977;28;20255;-62
2023/03/18 02:35:43;;;;;;;4.30;4.10;;;;;;;11.09;55.50;96272.09;5115592;28;20551;-62
2023/03/18 02:38:09;;;;;;;6.80;6.20;;;;;;;11.07;55.66;96274.16;5116629;28;20547;-62
2023/03/18 02:40:38;;;;;;;7.67;7.03;;;;;;;11.06;55.74;96272.56;5117150;28;20182;-62
2023/03/18 02:43:26;;;;;;;8.00;7.43;;;;;;;11.00;56.01;96278.78;5115120;28;20577;-62
2023/03/18 02:46:20;;;;;;;5.80;5.30;;;;;;;10.95;56.06;96274.28;5116872;28;20226;-62
2023/03/18 02:48:47;;;;;;;5.57;4.83;;;;;;;10.96;55.93;96282.94;5116518;28;20210;-63
2023/03/18 02:51:15;;;;;;;4.73;4.53;;;;;;;10.95;56.07;96278.72;5098745;28;20183;-63
2023/03/18 02:53:41;;;;;;;5.50;4.97;;;;;;;10.96;56.03;96275.88;5116135;28;20550;-62
2023/03/18 02:56:07;;;;;;;6.23;5.83;;;;;;;10.90;56.32;96271.56;5099215;28;20243;-62
2023/03/18 02:58:33;;;;;;;5.63;5.23;;;;;;;10.92;56.32;96277.38;5096342;28;20238;-61
2023/03/18 03:01:00;;;;;;;6.33;5.83;;;;;;;10.89;56.44;96288.34;5095466;28;20234;-62
2023/03/18 03:03:26;;;;;;;7.33;6.93;;;;;;;10.88;56.77;96278.88;5095988;28;20255;-62
2023/03/18 03:05:52;;;;;;;8.70;7.87;;;;;;;10.81;57.21;96280.91;5096106;28;20183;-62
2023/03/18 03:08:18;;;;;;;7.43;6.77;;;;;;;10.83;57.12;96284.84;5095955;28;20184;-63
2023/03/18 03:10:44;;;;;;;8.10;7.57;;;;;;;10.82;57.26;96290.31;5095898;28;20199;-63
2023/03/18 03:13:10;;;;;;;7.43;7.03;;;;;;;10.83;57.27;96297.16;5096017;28;20176;-63
2023/03/18 03:15:39;;;;;;;8.17;7.57;;;;;;;10.86;57.63;96288.03;5095196;28;20703;-63
2023/03/18 03:18:05;;;;;;;10.67;10.00;;;;;;;10.83;57.44;96295.34;5095569;28;20181;-63
2023/03/18 03:20:34;;;;;;;7.37;6.87;;;;;;;10.85;56.78;96289.84;5095996;28;20204;-62
2023/03/18 03:23:00;;;;;;;8.90;8.43;;;;;;;10.83;57.47;96290.09;5095731;28;20747;-63
2023/03/18 03:25:26;;;;;;;8.23;7.63;;;;;;;10.75;57.80;96303.63;5092077;28;20226;-63
2023/03/18 03:27:53;;;;;;;7.80;7.17;;;;;;;10.76;57.30;96307.81;5095498;28;20183;-62
2023/03/18 03:30:19;;;;;;;7.43;7.03;;;;;;;10.82;57.06;96300.81;5095399;28;20200;-63
2023/03/18 03:32:46;;;;;;;7.80;7.40;;;;;;;10.78;57.61;96299.72;5095511;28;20173;-63
2023/03/18 03:35:14;;;;;;;7.30;7.00;;;;;;;10.78;57.23;96297.09;5095082;28;20208;-67
2023/03/18 03:37:39;;;;;;;7.43;6.87;;;;;;;10.81;56.92;96300.00;5093875;28;20187;-63
2023/03/18 03:40:07;;;;;;;11.77;11.07;;;;;;;10.75;57.21;96305.44;5095327;28;20204;-63
2023/03/18 03:42:32;;;;;;;15.30;14.43;;;;;;;10.77;57.31;96317.25;5094555;28;20224;-63
2023/03/18 03:44:57;;;;;;;18.17;17.17;;;;;;;10.71;57.64;96314.78;5095061;28;20614;-63
2023/03/18 03:47:23;;;;;;;24.73;22.73;;;;;;;10.68;57.65;96321.31;5094897;28;20233;-63
2023/03/18 03:49:49;;;;;;;27.07;25.67;;;;;;;10.61;57.76;96318.06;5095414;28;20287;-63
2023/03/18 03:52:14;;;;;;;34.57;32.43;;;;;;;10.56;58.01;96325.84;5094657;28;20183;-63
2023/03/18 03:54:40;;;;;;;32.63;30.83;;;;;;;10.61;58.47;96322.50;5095001;28;21733;-63
2023/03/18 03:57:06;;;;;;;32.13;30.30;;;;;;;10.63;58.18;96320.44;5115238;28;20644;-63
2023/03/18 03:59:32;;;;;;;26.87;25.53;;;;;;;10.58;58.34;96320.38;5114727;28;20571;-63
2023/03/18 04:01:57;;;;;;;23.30;22.07;;;;;;;10.52;58.75;96321.31;5115118;28;20191;-61
2023/03/18 04:04:23;;;;;;;16.07;14.97;;;;;;;10.49;58.61;96313.91;5115392;28;20160;-63
2023/03/18 04:06:48;;;;;;;11.27;10.43;;;;;;;10.53;58.45;96315.06;5115419;28;20214;-63
2023/03/18 04:09:14;;;;;;;5.70;5.30;;;;;;;10.51;58.82;96314.47;5115215;28;20672;-63
2023/03/18 04:11:40;;;;;;;4.90;4.50;;;;;;;10.46;58.52;96317.03;5096923;28;20168;-63
2023/03/18 04:14:05;;;;;;;9.47;3.67;;;;;;;10.49;58.95;96319.16;5115003;28;20624;-63
2023/03/18 04:16:31;;;;;;;4.00;3.30;;;;;;;10.51;59.02;96324.97;5114647;28;20192;-63
2023/03/18 04:18:56;;;;;;;3.70;3.40;;;;;;;10.51;58.93;96317.09;5114962;28;20264;-63
2023/03/18 04:21:22;;;;;;;5.03;4.63;;;;;;;10.42;59.04;96314.09;5114868;28;20200;-63
2023/03/18 04:23:47;;;;;;;4.23;3.90;;;;;;;10.30;59.30;96315.97;5112480;28;20195;-63
2023/03/18 04:26:13;;;;;;;4.80;4.40;;;;;;;10.35;59.19;96316.06;5114815;28;20194;-63
2023/03/18 04:28:39;;;;;;;4.50;4.20;;;;;;;10.36;59.23;96318.44;5115007;28;20667;-63
2023/03/18 04:31:04;;;;;;;3.47;3.17;;;;;;;10.29;59.70;96319.63;5115088;28;20182;-63
2023/03/18 04:33:36;;;;;;;3.90;3.50;;;;;;;10.29;59.36;96317.00;5114630;28;20255;-63
2023/03/18 04:36:01;;;;;;;4.63;3.87;;;;;;;10.34;59.49;96322.31;5114698;28;20512;-63
2023/03/18 04:40:55;;;;;;;4.83;4.33;;;;;;;10.26;59.81;96322.69;5061064;22;20234;-63
2023/03/18 04:45:48;;;;;;;4.30;4.10;;;;;;;10.20;59.89;96326.25;5071859;28;20228;-63
2023/03/18 04:48:13;;;;;;;4.43;4.03;;;;;;;10.23;59.69;96317.94;5073164;28;20166;-63
2023/03/18 04:50:39;;;;;;;10.10;4.10;;;;;;;10.12;60.34;96330.03;5073260;28;20178;-63
2023/03/18 04:53:05;;;;;;;4.40;4.00;;;;;;;10.07;60.68;96329.94;5073582;28;20185;-63
2023/03/18 04:55:30;;;;;;;4.83;4.53;;;;;;;10.06;60.54;96328.34;5073719;28;20197;-63
2023/03/18 04:57:56;;;;;;;5.47;5.07;;;;;;;10.10;60.30;96326.03;5073263;28;20544;-63
2023/03/18 05:00:22;;;;;;;6.27;5.77;;;;;;;10.05;60.62;96325.94;5073551;28;20209;-63
2023/03/18 05:02:48;;;;;;;9.13;5.97;;;;;;;10.00;60.47;96324.03;5055035;28;20264;-63
2023/03/18 05:05:13;;;;;;;6.37;5.97;;;;;;;9.97;60.43;96320.06;5073083;28;20184;-63
2023/03/18 05:07:39;;;;;;;6.50;5.90;;;;;;;9.97;60.21;96317.44;5073420;28;20174;-63
2023/03/18 05:10:06;;;;;;;6.47;5.63;;;;;;;10.06;59.93;96311.84;5073268;28;20201;-63
2023/03/18 05:12:32;;;;;;;7.70;7.20;;;;;;;10.00;60.07;96316.97;5073048;28;20174;-63
2023/03/18 05:14:57;;;;;;;7.50;6.73;;;;;;;9.97;59.87;96314.81;5073188;28;20194;-63
2023/03/18 05:17:23;;;;;;;7.13;6.53;;;;;;;10.00;59.99;96316.19;5073067;28;20182;-63
2023/03/18 05:19:48;;;;;;;8.90;8.30;;;;;;;10.02;60.01;96316.75;5072834;28;20743;-63
2023/03/18 05:22:17;;;;;;;9.27;8.67;;;;;;;10.01;59.77;96317.78;5073110;28;20185;-63
2023/03/18 05:24:44;;;;;;;10.53;9.93;;;;;;;9.96;60.18;96328.97;5055005;28;20243;-63
2023/03/18 05:27:11;;;;;;;12.97;12.27;;;;;;;9.96;60.49;96325.53;5072272;28;20304;-63
2023/03/18 05:29:39;;;;;;;14.60;13.60;;;;;;;9.90;60.42;96329.09;5053687;28;20208;-63
2023/03/18 05:32:05;;;;;;;12.10;11.23;;;;;;;9.86;60.92;96330.59;5071383;28;20185;-63
2023/03/18 05:34:41;;;;;;;7.23;6.73;;;;;;;9.79;61.50;96330.72;5072749;28;20181;-63
2023/03/18 05:37:08;;;;;;;5.10;4.80;;;;;;;9.72;61.52;96324.81;5072065;28;20184;-63
2023/03/18 05:39:34;;;;;;;6.37;4.03;;;;;;;9.68;61.95;96334.16;5051029;28;20279;-63
2023/03/18 05:42:01;;;;;;;4.53;3.90;;;;;;;9.65;62.40;96339.84;5058864;28;20284;-63
2023/03/18 05:44:28;;;;;;;4.50;3.57;;;;;;;9.66;62.39;96338.81;5087503;28;20382;-63
2023/03/18 05:46:53;;;;;;;4.13;3.83;;;;;;;9.62;62.97;96331.69;5112830;28;20267;-64
2023/03/18 05:49:19;;;;;;;4.93;4.63;;;;;;;9.59;62.71;96333.72;5112954;28;20235;-63
2023/03/18 05:51:45;;;;;;;7.70;7.23;;;;;;;9.64;62.73;96327.78;5116217;28;20176;-62
2023/03/18 05:54:13;;;;;;;6.57;6.17;;;;;;;9.58;62.72;96328.75;5123163;28;20201;-63
2023/03/18 05:56:38;;;;;;;5.70;5.40;;;;;;;9.58;63.21;96333.97;5116571;28;20199;-62
2023/03/18 05:59:05;;;;;;;5.53;5.23;;;;;;;9.65;62.83;96320.72;5094124;28;20571;-62
2023/03/18 06:01:31;;;;;;;4.17;3.87;;;;;;;9.62;62.55;96324.63;5111870;28;20183;-62
2023/03/18 06:03:58;;;;;;;4.57;4.37;;;;;;;9.60;62.96;96327.47;5112817;28;20175;-62
2023/03/18 06:06:24;;;;;;;4.73;4.43;;;;;;;9.63;62.74;96335.88;5113289;28;20199;-62
2023/03/18 06:08:51;;;;;;;3.93;3.70;;;;;;;9.66;62.49;96330.19;5113053;28;20671;-62
2023/03/18 06:11:17;;;;;;;4.53;4.23;;;;;;;9.73;62.22;96331.66;5113198;28;20183;-64
2023/03/18 06:13:51;;;;;;;4.23;3.93;;;;;;;9.75;62.67;96329.56;5112552;28;20192;-63
2023/03/18 06:16:16;;;;;;;5.17;4.17;;;;;;;9.73;62.61;96339.50;5112650;28;20675;-62
2023/03/18 06:18:46;;;;;;;4.87;4.47;;;;;;;9.69;62.78;96338.38;5112928;28;20229;-63
2023/03/18 06:21:11;;;;;;;4.93;4.53;;;;;;;9.78;62.56;96339.59;5109783;28;20196;-63
2023/03/18 06:23:38;;;;;;;6.17;5.00;;;;;;;9.85;61.83;96345.50;5112737;28;20620;-63
2023/03/18 06:26:04;;;;;;;5.30;4.90;;;;;;;9.92;61.74;96338.28;5094473;28;20703;-63
2023/03/18 06:28:30;;;;;;;5.10;4.70;;;;;;;9.96;61.54;96346.47;5112768;28;20200;-63
2023/03/18 06:30:56;;;;;;;5.73;5.37;;;;;;;9.94;61.46;96345.91;5112378;28;20200;-63
2023/03/18 06:33:31;;;;;;;6.13;5.73;;;;;;;9.82;62.26;96343.31;5113086;28;20543;-63
2023/03/18 06:35:59;;;;;;;6.03;5.70;;;;;;;9.88;62.24;96352.06;5095089;28;20210;-63
2023/03/18 06:38:24;;;;;;;6.33;5.90;;;;;;;9.95;61.64;96347.50;5112158;28;20208;-63
2023/03/18 06:40:50;;;;;;;5.20;4.63;;;;;;;10.13;61.54;96354.41;5112488;28;20184;-63
2023/03/18 06:43:15;;;;;;;5.33;4.10;;;;;;;10.35;60.90;96350.91;5109397;28;20275;-64
2023/03/18 06:45:41;;;;;;;6.87;6.37;;;;;;;10.45;59.67;96346.88;5109383;28;20246;-63
2023/03/18 06:48:08;;;;;;;11.20;10.40;;;;;;;10.54;59.46;96353.28;5111091;28;20630;-64
2023/03/18 06:50:33;;;;;;;12.20;11.33;;;;;;;10.62;59.13;96355.53;5110142;28;20183;-63
2023/03/18 06:52:59;;;;;;;10.40;9.70;;;;;;;10.53;59.86;96352.53;5112708;28;20616;-63
2023/03/18 06:55:26;;;;;;;8.30;7.80;;;;;;;10.57;59.53;96350.22;5094038;28;20188;-63
2023/03/18 06:57:52;;;;;;;10.80;10.10;;;;;;;10.55;59.44;96354.88;5113614;28;20176;-63
2023/03/18 07:00:18;;;;;;;15.03;14.07;;;;;;;10.66;59.20;96354.03;5112227;28;20195;-63
2023/03/18 07:02:44;;;;;;;19.27;17.93;;;;;;;10.68;59.10;96358.00;5112550;28;20313;-61
2023/03/18 07:05:11;;;;;;;20.63;19.50;;;;;;;10.64;58.86;96362.16;5112614;28;20168;-54
2023/03/18 07:07:38;;;;;;;6.77;6.27;;;;;;;11.04;71.88;96361.97;5112402;28;20180;-65
2023/03/18 07:10:09;;;;;;;11.10;10.50;;;;;;;11.39;60.87;96356.44;5111925;28;20208;-64
2023/03/18 07:12:34;;;;;;;12.50;11.60;;;;;;;11.78;61.22;96359.88;5115605;28;20179;-64
2023/03/18 07:15:01;;;;;;;14.77;13.77;;;;;;;11.90;56.09;96354.50;5116389;28;20204;-65
2023/03/18 07:17:26;;;;;;;7.87;7.20;;;;;;;12.05;54.72;96360.72;5115081;28;20249;-66
2023/03/18 07:19:52;;;;;;;7.27;6.77;;;;;;;12.01;54.94;96362.25;5115918;28;20612;-64
2023/03/18 07:22:17;;;;;;;4.87;4.27;;;;;;;12.23;54.53;96364.84;5116861;28;20164;-64
2023/03/18 07:24:44;;;;;;;5.27;4.97;;;;;;;12.22;54.15;96362.47;5116182;28;20188;-64
2023/03/18 07:27:12;;;;;;;6.37;5.93;;;;;;;12.26;54.32;96363.59;5116081;28;20175;-64
2023/03/18 07:29:37;;;;;;;3.57;3.33;;;;;;;12.55;56.28;96364.09;5116227;28;20200;-63
2023/03/18 07:32:03;;;;;;;5.40;5.00;;;;;;;12.75;53.69;96373.00;5115689;28;20686;-63
2023/03/18 07:34:28;;;;;;;10.27;9.60;;;;;;;12.84;53.15;96376.75;5115976;28;20236;-64
2023/03/18 07:36:59;;;;;;;11.20;10.40;;;;;;;12.79;53.04;96381.97;5115432;28;20215;-66
2023/03/18 07:39:25;;;;;;;30.37;28.63;;;;;;;12.99;52.25;96378.69;5115459;28;20204;-61
2023/03/18 07:41:50;;;;;;;32.87;31.17;;;;;;;12.96;51.52;96379.19;5115006;28;20187;-64
2023/03/18 07:44:16;;;;;;;31.93;30.20;;;;;;;13.00;51.71;96387.38;5078766;28;20237;-63
2023/03/18 07:46:41;;;;;;;21.80;20.43;;;;;;;13.10;51.67;96384.81;5075041;28;20248;-63
2023/03/18 07:49:07;;;;;;;17.60;16.50;;;;;;;13.28;51.31;96382.63;5094690;28;20676;-66
2023/03/18 07:51:33;;;;;;;8.80;8.17;;;;;;;13.28;50.80;96387.09;5095242;28;20180;-61
2023/03/18 07:53:58;;;;;;;10.27;9.33;;;;;;;13.46;50.91;96383.25;5077215;28;20200;-61
2023/03/18 07:56:26;;;;;;;8.20;7.60;;;;;;;13.25;51.13;96387.63;5094778;28;20200;-62
2023/03/18 07:58:51;;;;;;;8.10;6.03;;;;;;;13.31;51.02;96381.34;5080614;28;20208;-61
2023/03/18 08:01:18;;;;;;;6.60;6.10;;;;;;;13.43;50.67;96387.19;5094907;28;20229;-59
2023/03/18 08:03:45;;;;;;;9.87;9.23;;;;;;;13.55;50.30;96385.16;5064592;28;20189;-62
2023/03/18 08:06:12;;;;;;;12.93;12.00;;;;;;;13.68;50.41;96386.56;5071522;28;20166;-61
2023/03/18 08:08:39;;;;;;;16.90;15.83;;;;;;;13.72;50.24;96388.41;5073917;28;20205;-62
2023/03/18 08:11:07;;;;;;;14.40;13.53;;;;;;;13.83;49.68;96397.16;5070119;28;20250;-61
2023/03/18 08:13:32;;;;;;;10.07;9.37;;;;;;;14.05;49.26;96394.34;5073783;28;20683;-62
2023/03/18 08:15:58;;;;;;;7.93;7.20;;;;;;;14.06;49.12;96388.03;5074699;28;20197;-62
2023/03/18 08:18:23;;;;;;;7.57;6.80;;;;;;;14.22;48.73;96392.31;5074898;28;20568;-63
2023/03/18 08:20:49;;;;;;;8.30;7.80;;;;;;;14.39;48.06;96394.75;5086922;28;20561;-63
2023/03/18 08:23:14;;;;;;;7.60;7.20;;;;;;;14.48;47.94;96395.84;5059330;28;20185;-59
2023/03/18 08:25:41;;;;;;;6.77;6.23;;;;;;;14.55;47.67;96394.53;5066415;28;20181;-65
2023/03/18 08:28:06;;;;;;;4.23;3.93;;;;;;;14.45;47.55;96401.63;5074096;28;20180;-62
2023/03/18 08:30:34;;;;;;;3.67;3.30;;;;;;;14.54;47.57;96400.09;5074470;28;20178;-61
2023/03/18 08:33:00;;;;;;;3.60;3.30;;;;;;;14.51;47.50;96401.38;5059500;28;20188;-64
2023/03/18 08:35:26;;;;;;;4.23;3.27;;;;;;;14.68;46.75;96400.38;5074026;28;20203;-64
2023/03/18 08:37:51;;;;;;;4.55;3.83;;;;;;;14.66;46.96;96400.63;5073727;28;20177;-64
2023/03/18 08:40:19;;;;;;;5.83;5.33;;;;;;;14.71;46.81;96397.22;5081660;28;20261;-70
2023/03/18 08:42:45;;;;;;;11.07;10.47;;;;;;;14.81;46.68;96405.13;5092575;28;20207;-64
2023/03/18 08:45:11;;;;;;;22.37;20.83;;;;;;;14.83;46.47;96397.72;5100479;28;20232;-65
2023/03/18 08:47:37;;;;;;;26.03;24.63;;;;;;;14.83;46.17;96398.53;5098968;28;20635;-64
2023/03/18 08:50:04;;;;;;;16.40;15.33;;;;;;;15.05;45.45;96395.63;5113505;28;20214;-65
2023/03/18 08:52:33;;;;;;;10.57;10.03;;;;;;;14.94;45.34;96394.06;5096193;28;20160;-66
2023/03/18 08:55:03;;;;;;;11.07;10.33;;;;;;;14.88;45.94;96395.09;5113790;28;20183;-66
2023/03/18 08:57:28;;;;;;;16.20;15.30;;;;;;;15.19;45.67;96394.06;5112863;28;20519;-65
2023/03/18 09:00:20;;;;;;;9.67;9.17;;;;;;;15.21;45.17;96384.00;5113742;28;20241;-66
2023/03/18 09:02:46;;;;;;;14.23;13.48;;;;;;;15.24;45.69;96386.13;5111727;28;20173;-60
2023/03/18 09:05:12;;;;;;;29.55;27.85;;;;;;;15.34;46.65;96383.47;5116351;28;20670;-68
2023/03/18 09:07:37;;;;;;;8.05;7.55;;;;;;;15.51;47.28;96383.19;5114543;28;20172;-65
2023/03/18 09:10:03;;;;;;;7.85;7.45;;;;;;;15.39;44.61;96382.69;5113639;28;20286;-68
2023/03/18 09:12:29;;;;;;;25.52;23.92;;;;;;;15.18;47.02;96381.13;5113372;28;20184;-65
2023/03/18 09:14:55;;;;;;;5.60;5.20;;;;;;;15.10;48.88;96373.75;5113384;28;20180;-64
2023/03/18 09:17:22;;;;;;;3.65;3.40;;;;;;;15.19;49.07;96378.22;5114140;28;20225;-65
2023/03/18 09:19:48;;;;;;;12.85;11.23;;;;;;;15.11;47.66;96376.09;5114601;28;20196;-65
2023/03/18 09:22:13;;;;;;;10.45;9.85;;;;;;;14.91;48.01;96373.47;5113549;28;20176;-65
2023/03/18 09:24:39;;;;;;;4.90;4.40;;;;;;;14.93;48.04;96379.28;5115433;28;20172;-65
2023/03/18 09:27:05;;;;;;;7.37;6.67;;;;;;;14.90;48.33;96372.69;5095709;28;20174;-65
2023/03/18 09:29:30;;;;;;;3.50;3.20;;;;;;;14.88;48.70;96377.41;5113279;28;20200;-65
2023/03/18 09:31:56;;;;;;;4.32;3.92;;;;;;;14.94;48.17;96376.38;5113453;28;20337;-65
2023/03/18 09:34:22;;;;;;;3.25;2.95;;;;;;;15.05;49.03;96376.38;5113353;28;20176;-66
2023/03/18 09:36:49;;;;;;;3.67;3.30;;;;;;;14.77;49.03;96375.03;5094318;28;20203;-65
2023/03/18 09:39:17;;;;;;;3.70;3.30;;;;;;;14.89;49.26;96376.38;5113418;28;20188;-65
2023/03/18 09:42:14;;;;;;;3.40;3.10;;;;;;;15.05;49.23;96371.88;5111483;28;20271;-65
2023/03/18 09:44:41;;;;;;;3.00;2.80;;;;;;;15.19;49.15;96372.16;5062203;28;20239;-65
2023/03/18 09:47:44;;;;;;;3.47;3.17;;;;;;;15.29;48.02;96372.13;5093222;28;20179;-65
2023/03/18 09:50:12;;;;;;;3.25;3.05;;;;;;;15.27;48.21;96366.31;5092548;28;20195;-65
2023/03/18 09:53:04;;;;;;;3.10;2.90;;;;;;;15.25;47.94;96371.09;5092852;28;20197;-65
2023/03/18 09:55:41;;;;;;;3.72;3.38;;;;;;;15.26;48.06;96375.31;5092699;28;20204;-65
2023/03/18 09:58:16;;;;;;;8.60;8.00;;;;;;;15.11;47.65;96372.66;5092892;28;20161;-65
2023/03/18 10:00:43;;;;;;;4.18;3.88;;;;;;;15.25;48.12;96371.09;5092673;28;20182;-65
2023/03/18 10:03:08;;;;;;;10.80;10.00;;;;;;;15.29;47.18;96365.00;5092727;28;20165;-65
2023/03/18 10:05:42;;;;;;;17.83;16.85;;;;;;;15.37;47.26;96358.41;5092501;28;20195;-66
2023/03/18 10:08:20;;;;;;;11.75;10.85;;;;;;;15.47;47.13;96357.59;5074251;28;20175;-66
2023/03/18 10:10:47;;;;;;;13.00;12.13;;;;;;;15.61;47.00;96356.78;5092426;28;20172;-66
2023/03/18 10:13:37;;;;;;;12.25;11.45;;;;;;;15.68;46.16;96354.66;5092225;28;20176;-66
2023/03/18 10:16:06;;;;;;;8.27;7.55;;;;;;;15.72;45.47;96354.88;5077104;28;20197;-65
2023/03/18 10:18:38;;;;;;;5.65;5.35;;;;;;;15.32;45.51;96353.91;5091937;28;20184;-65
2023/03/18 10:21:30;;;;;;;6.03;5.38;;;;;;;15.34;45.98;96348.34;5092356;28;20196;-65
2023/03/18 10:24:20;;;;;;;5.05;4.65;;;;;;;15.57;45.72;96355.75;5092305;28;20190;-65
2023/03/18 10:27:02;;;;;;;6.55;5.97;;;;;;;15.61;43.83;96350.69;5089596;23;20244;-70
2023/03/18 10:29:36;;;;;;;6.18;5.78;;;;;;;15.71;44.13;96356.78;5092738;28;20246;-71
2023/03/18 10:32:33;;;;;;;4.88;4.55;;;;;;;15.80;43.65;96346.41;5092671;28;20183;-70
2023/03/18 10:35:37;;;;;;;5.30;4.78;;;;;;;15.70;44.34;96357.03;5046935;28;20198;-70
2023/03/18 10:38:06;;;;;;;8.02;7.35;;;;;;;15.68;44.41;96349.38;5047693;28;20186;-71
2023/03/18 10:40:38;;;;;;;4.43;4.13;;;;;;;15.66;43.51;96348.84;5082808;28;20287;-70
2023/03/18 10:43:16;;;;;;;5.32;3.20;;;;;;;15.73;43.44;96353.84;5072667;28;20261;-70
2023/03/18 10:45:43;;;;;;;3.88;3.40;;;;;;;15.90;43.82;96351.66;5073273;28;20311;-70
2023/03/18 10:48:21;;;;;;;4.07;3.78;;;;;;;16.11;44.00;96353.16;5076457;28;20185;-70
2023/03/18 10:51:14;;;;;;;6.10;3.17;;;;;;;16.12;42.55;96346.00;5068340;28;20233;-70
2023/03/18 10:53:42;;;;;;;4.10;2.75;;;;;;;16.16;42.94;96347.84;5086634;28;20184;-70
2023/03/18 10:56:10;;;;;;;3.35;3.15;;;;;;;16.12;42.62;96344.16;5075261;28;20668;-70
2023/03/18 10:58:37;;;;;;;4.45;4.25;;;;;;;16.08;42.04;96344.97;5075970;28;20704;-70
2023/03/18 11:01:09;;;;;;;5.13;4.65;;;;;;;16.12;42.15;96346.81;5075760;28;20676;-70
2023/03/18 11:03:40;;;;;;;5.03;4.53;;;;;;;16.26;41.51;96339.06;5059198;28;20620;-71
2023/03/18 11:06:15;;;;;;;7.82;3.88;;;;;;;16.25;43.00;96329.56;5082972;28;20187;-70
2023/03/18 11:08:41;;;;;;;4.80;4.45;;;;;;;16.27;42.26;96326.66;5096233;28;20693;-70
2023/03/18 11:11:21;;;;;;;3.90;3.63;;;;;;;16.25;39.89;96328.75;5096261;28;20272;-71
2023/03/18 11:13:51;;;;;;;4.97;3.30;;;;;;;16.34;40.50;96330.53;5096099;28;20670;-71
2023/03/18 11:16:36;;;;;;;3.38;3.10;;;;;;;16.35;40.11;96329.50;5088384;28;20197;-71
2023/03/18 11:19:23;;;;;;;3.80;3.60;;;;;;;16.30;40.04;96318.16;5076053;28;20178;-70
2023/03/18 11:21:57;;;;;;;5.80;5.43;;;;;;;16.38;39.67;96328.16;5067751;28;20536;-72
2023/03/18 11:24:38;;;;;;;15.35;14.40;;;;;;;16.32;38.92;96322.13;5075926;28;20165;-71
2023/03/18 11:27:24;;;;;;;20.52;19.35;;;;;;;16.45;38.21;96316.19;5084305;28;20677;-70
2023/03/18 11:29:58;;;;;;;18.67;17.48;;;;;;;16.41;38.98;96311.72;5095295;28;20229;-70
2023/03/18 11:32:31;;;;;;;18.52;17.33;;;;;;;16.56;38.20;96312.41;5059602;28;20318;-71
2023/03/18 11:34:59;;;;;;;14.88;13.98;;;;;;;16.07;39.17;96311.66;5075121;28;20264;-70
2023/03/18 11:37:51;;;;;;;16.60;15.65;;;;;;;16.37;39.40;96308.06;5087558;28;20295;-71
2023/03/18 11:40:21;;;;;;;17.60;16.25;;;;;;;16.51;38.67;96309.81;5089296;28;20299;-71
2023/03/18 11:42:47;;;;;;;24.25;22.92;;;;;;;16.58;37.80;96306.84;5062329;28;20314;-70